sensor_id;sensor_type;location;lat;lon;timestamp;pressure;altitude;pressure_sealevel;temperature;humidity
65151;BME280;51918;51.856;0.150;2022-07-06T00:00:58;101771.59;;;14.70;49.39
65151;BME280;51918;51.856;0.150;2022-07-06T00:06:00;101779.50;;;14.61;49.59
65151;BME280;51918;51.856;0.150;2022-07-06T00:11:00;101774.13;;;14.54;50.09
65151;BME280;51918;51.856;0.150;2022-07-06T00:16:01;101792.25;;;14.46;50.42
65151;BME280;51918;51.856;0.150;2022-07-06T00:21:03;101797.66;;;14.34;50.68
65151;BME280;51918;51.856;0.150;2022-07-06T00:26:04;101799.56;;;14.24;50.97
65151;BME280;51918;51.856;0.150;2022-07-06T00:31:04;101790.19;;;14.23;51.11
65151;BME280;51918;51.856;0.150;2022-07-06T00:36:07;101791.09;;;14.14;51.23
65151;BME280;51918;51.856;0.150;2022-07-06T00:41:08;101788.97;;;14.09;51.24
65151;BME280;51918;51.856;0.150;2022-07-06T00:46:09;101787.28;;;14.00;50.67
65151;BME280;51918;51.856;0.150;2022-07-06T00:51:12;101775.00;;;13.94;51.52
65151;BME280;51918;51.856;0.150;2022-07-06T00:56:12;101774.75;;;13.87;51.26
65151;BME280;51918;51.856;0.150;2022-07-06T01:01:13;101767.94;;;13.78;52.25
65151;BME280;51918;51.856;0.150;2022-07-06T01:06:15;101769.47;;;13.71;51.74
65151;BME280;51918;51.856;0.150;2022-07-06T01:11:17;101769.75;;;13.68;51.87
65151;BME280;51918;51.856;0.150;2022-07-06T01:16:18;101772.00;;;13.63;51.96
65151;BME280;51918;51.856;0.150;2022-07-06T01:21:20;101781.81;;;13.59;52.83
65151;BME280;51918;51.856;0.150;2022-07-06T01:26:21;101786.50;;;13.55;52.64
65151;BME280;51918;51.856;0.150;2022-07-06T01:31:23;101788.69;;;13.50;52.72
65151;BME280;51918;51.856;0.150;2022-07-06T01:36:25;101786.72;;;13.44;52.62
65151;BME280;51918;51.856;0.150;2022-07-06T01:41:26;101786.66;;;13.36;53.02
65151;BME280;51918;51.856;0.150;2022-07-06T01:46:26;101795.50;;;13.33;53.22
65151;BME280;51918;51.856;0.150;2022-07-06T01:51:28;101784.00;;;13.28;52.98
65151;BME280;51918;51.856;0.150;2022-07-06T01:56:29;101788.13;;;13.21;53.35
65151;BME280;51918;51.856;0.150;2022-07-06T02:01:30;101791.59;;;13.11;53.28
65151;BME280;51918;51.856;0.150;2022-07-06T02:06:31;101798.00;;;13.07;53.13
65151;BME280;51918;51.856;0.150;2022-07-06T02:11:32;101796.84;;;13.02;53.82
65151;BME280;51918;51.856;0.150;2022-07-06T02:16:33;101801.47;;;12.98;54.00
65151;BME280;51918;51.856;0.150;2022-07-06T02:21:34;101792.25;;;12.95;54.48
65151;BME280;51918;51.856;0.150;2022-07-06T02:26:35;101810.78;;;12.91;54.26
65151;BME280;51918;51.856;0.150;2022-07-06T02:31:36;101797.31;;;12.87;54.83
65151;BME280;51918;51.856;0.150;2022-07-06T02:36:37;101788.09;;;12.85;54.41
65151;BME280;51918;51.856;0.150;2022-07-06T02:41:38;101798.69;;;12.82;54.48
65151;BME280;51918;51.856;0.150;2022-07-06T02:46:38;101798.69;;;12.82;54.40
65151;BME280;51918;51.856;0.150;2022-07-06T02:51:40;101783.38;;;12.80;54.50
65151;BME280;51918;51.856;0.150;2022-07-06T02:56:41;101799.13;;;12.77;54.41
65151;BME280;51918;51.856;0.150;2022-07-06T03:01:42;101802.03;;;12.74;54.45
65151;BME280;51918;51.856;0.150;2022-07-06T03:06:43;101800.53;;;12.71;54.77
65151;BME280;51918;51.856;0.150;2022-07-06T03:11:44;101792.41;;;12.66;55.00
65151;BME280;51918;51.856;0.150;2022-07-06T03:16:45;101785.38;;;12.59;55.57
65151;BME280;51918;51.856;0.150;2022-07-06T03:21:46;101779.41;;;12.58;54.86
65151;BME280;51918;51.856;0.150;2022-07-06T03:26:47;101779.41;;;12.58;55.86
65151;BME280;51918;51.856;0.150;2022-07-06T03:31:47;101775.59;;;12.52;55.53
65151;BME280;51918;51.856;0.150;2022-07-06T03:36:49;101778.63;;;12.48;54.84
65151;BME280;51918;51.856;0.150;2022-07-06T03:41:50;101799.53;;;12.45;55.62
65151;BME280;51918;51.856;0.150;2022-07-06T03:46:50;101785.28;;;12.41;55.43
65151;BME280;51918;51.856;0.150;2022-07-06T03:51:52;101771.22;;;12.35;56.56
65151;BME280;51918;51.856;0.150;2022-07-06T03:56:53;101782.19;;;12.37;56.20
65151;BME280;51918;51.856;0.150;2022-07-06T04:01:54;101781.34;;;12.37;56.43
65151;BME280;51918;51.856;0.150;2022-07-06T04:06:55;101781.63;;;12.43;56.21
65151;BME280;51918;51.856;0.150;2022-07-06T04:11:56;101783.34;;;12.52;56.58
65151;BME280;51918;51.856;0.150;2022-07-06T04:16:56;101787.41;;;12.65;56.50
65151;BME280;51918;51.856;0.150;2022-07-06T04:21:58;101796.41;;;12.79;56.71
65151;BME280;51918;51.856;0.150;2022-07-06T04:26:59;101787.88;;;12.96;56.19
65151;BME280;51918;51.856;0.150;2022-07-06T04:31:59;101787.22;;;13.12;55.88
65151;BME280;51918;51.856;0.150;2022-07-06T04:37:01;101785.59;;;13.29;56.17
65151;BME280;51918;51.856;0.150;2022-07-06T04:42:02;101786.66;;;13.36;55.50
65151;BME280;51918;51.856;0.150;2022-07-06T04:47:03;101799.69;;;13.52;55.56
65151;BME280;51918;51.856;0.150;2022-07-06T04:52:06;101804.22;;;13.68;55.48
65151;BME280;51918;51.856;0.150;2022-07-06T04:57:06;101801.28;;;13.89;55.51
65151;BME280;51918;51.856;0.150;2022-07-06T05:02:07;101794.31;;;14.08;55.21
65151;BME280;51918;51.856;0.150;2022-07-06T05:07:09;101802.97;;;14.25;55.23
65151;BME280;51918;51.856;0.150;2022-07-06T05:12:10;101806.09;;;14.36;54.82
65151;BME280;51918;51.856;0.150;2022-07-06T05:17:11;101809.09;;;14.50;54.89
65151;BME280;51918;51.856;0.150;2022-07-06T05:22:12;101801.34;;;14.66;54.83
65151;BME280;51918;51.856;0.150;2022-07-06T05:27:13;101798.22;;;14.89;54.82
65151;BME280;51918;51.856;0.150;2022-07-06T05:32:14;101800.69;;;15.07;54.34
65151;BME280;51918;51.856;0.150;2022-07-06T05:37:15;101804.41;;;15.20;54.26
65151;BME280;51918;51.856;0.150;2022-07-06T05:42:16;101796.00;;;15.35;54.36
65151;BME280;51918;51.856;0.150;2022-07-06T05:47:17;101793.44;;;15.59;54.17
65151;BME280;51918;51.856;0.150;2022-07-06T05:52:19;101791.31;;;15.88;54.02
65151;BME280;51918;51.856;0.150;2022-07-06T05:57:19;101781.34;;;16.16;53.85
65151;BME280;51918;51.856;0.150;2022-07-06T06:02:20;101786.25;;;16.50;53.25
65151;BME280;51918;51.856;0.150;2022-07-06T06:07:22;101790.31;;;16.84;52.60
65151;BME280;51918;51.856;0.150;2022-07-06T06:12:22;101794.56;;;17.08;52.61
65151;BME280;51918;51.856;0.150;2022-07-06T06:17:23;101809.50;;;17.29;52.01
65151;BME280;51918;51.856;0.150;2022-07-06T06:22:25;101807.25;;;17.49;51.64
65151;BME280;51918;51.856;0.150;2022-07-06T06:27:26;101813.72;;;17.53;51.29
65151;BME280;51918;51.856;0.150;2022-07-06T06:32:27;101815.81;;;17.35;51.38
65151;BME280;51918;51.856;0.150;2022-07-06T06:37:29;101823.59;;;17.58;51.30
65151;BME280;51918;51.856;0.150;2022-07-06T06:42:29;101814.69;;;17.75;50.94
65151;BME280;51918;51.856;0.150;2022-07-06T06:47:30;101818.91;;;17.91;50.95
65151;BME280;51918;51.856;0.150;2022-07-06T06:52:32;101814.53;;;18.07;51.01
65151;BME280;51918;51.856;0.150;2022-07-06T06:57:33;101814.88;;;18.63;50.40
65151;BME280;51918;51.856;0.150;2022-07-06T07:02:33;101809.22;;;19.17;49.76
65151;BME280;51918;51.856;0.150;2022-07-06T07:07:35;101815.72;;;19.78;48.20
65151;BME280;51918;51.856;0.150;2022-07-06T07:12:42;101817.38;;;20.14;47.42
65151;BME280;51918;51.856;0.150;2022-07-06T07:17:43;101823.03;;;20.24;46.57
65151;BME280;51918;51.856;0.150;2022-07-06T07:22:45;101812.59;;;20.24;46.30
65151;BME280;51918;51.856;0.150;2022-07-06T07:27:45;101806.88;;;20.48;46.30
65151;BME280;51918;51.856;0.150;2022-07-06T07:32:46;101809.03;;;20.32;46.37
65151;BME280;51918;51.856;0.150;2022-07-06T07:37:48;101804.28;;;20.55;46.51
65151;BME280;51918;51.856;0.150;2022-07-06T07:42:49;101785.22;;;20.75;46.25
65151;BME280;51918;51.856;0.150;2022-07-06T07:47:49;101783.03;;;20.85;46.24
65151;BME280;51918;51.856;0.150;2022-07-06T07:52:51;101777.81;;;20.98;46.89
65151;BME280;51918;51.856;0.150;2022-07-06T07:57:52;101786.50;;;21.52;46.47
65151;BME280;51918;51.856;0.150;2022-07-06T08:02:52;101782.66;;;21.81;46.05
65151;BME280;51918;51.856;0.150;2022-07-06T08:07:54;101769.03;;;22.11;46.00
65151;BME280;51918;51.856;0.150;2022-07-06T08:12:55;101773.53;;;22.49;45.66
65151;BME280;51918;51.856;0.150;2022-07-06T08:17:56;101771.84;;;22.93;45.31
65151;BME280;51918;51.856;0.150;2022-07-06T08:22:58;101758.72;;;23.18;44.42
65151;BME280;51918;51.856;0.150;2022-07-06T08:27:58;101758.38;;;23.58;43.67
65151;BME280;51918;51.856;0.150;2022-07-06T08:32:59;101757.59;;;23.94;42.92
65151;BME280;51918;51.856;0.150;2022-07-06T08:38:01;101754.59;;;24.40;42.39
65151;BME280;51918;51.856;0.150;2022-07-06T08:43:02;101749.22;;;24.88;41.79
65151;BME280;51918;51.856;0.150;2022-07-06T08:48:04;101736.75;;;25.54;40.66
65151;BME280;51918;51.856;0.150;2022-07-06T08:53:06;101742.34;;;26.10;39.23
65151;BME280;51918;51.856;0.150;2022-07-06T08:58:07;101743.16;;;26.73;38.21
65151;BME280;51918;51.856;0.150;2022-07-06T09:03:11;101755.22;;;26.69;37.39
65151;BME280;51918;51.856;0.150;2022-07-06T09:08:13;101751.56;;;26.87;37.98
65151;BME280;51918;51.856;0.150;2022-07-06T09:13:14;101741.81;;;26.88;37.01
65151;BME280;51918;51.856;0.150;2022-07-06T09:18:15;101737.41;;;26.93;37.95
65151;BME280;51918;51.856;0.150;2022-07-06T09:23:17;101747.78;;;27.56;36.83
65151;BME280;51918;51.856;0.150;2022-07-06T09:28:17;101749.88;;;28.25;35.45
65151;BME280;51918;51.856;0.150;2022-07-06T09:33:18;101755.03;;;28.37;34.83
65151;BME280;51918;51.856;0.150;2022-07-06T09:38:20;101751.09;;;28.17;34.77
65151;BME280;51918;51.856;0.150;2022-07-06T09:43:22;101743.28;;;28.28;35.43
65151;BME280;51918;51.856;0.150;2022-07-06T09:48:24;101737.25;;;28.65;34.80
65151;BME280;51918;51.856;0.150;2022-07-06T09:53:27;101726.72;;;28.75;33.64
65151;BME280;51918;51.856;0.150;2022-07-06T09:58:28;101728.78;;;29.48;33.76
65151;BME280;51918;51.856;0.150;2022-07-06T10:03:29;101739.00;;;30.07;33.49
65151;BME280;51918;51.856;0.150;2022-07-06T10:08:33;101734.25;;;30.30;32.10
65151;BME280;51918;51.856;0.150;2022-07-06T10:13:36;101734.78;;;30.73;31.19
65151;BME280;51918;51.856;0.150;2022-07-06T10:18:37;101738.16;;;31.14;31.21
65151;BME280;51918;51.856;0.150;2022-07-06T10:23:40;101735.56;;;31.69;29.92
65151;BME280;51918;51.856;0.150;2022-07-06T10:28:41;101716.22;;;31.98;29.02
65151;BME280;51918;51.856;0.150;2022-07-06T10:33:42;101730.75;;;32.16;29.10
65151;BME280;51918;51.856;0.150;2022-07-06T10:38:48;101712.19;;;32.40;29.27
65151;BME280;51918;51.856;0.150;2022-07-06T10:43:49;101724.97;;;32.72;27.93
65151;BME280;51918;51.856;0.150;2022-07-06T10:48:50;101709.25;;;32.95;27.74
65151;BME280;51918;51.856;0.150;2022-07-06T10:53:56;101702.56;;;33.59;27.75
65151;BME280;51918;51.856;0.150;2022-07-06T10:59:01;101694.50;;;34.49;26.87
65151;BME280;51918;51.856;0.150;2022-07-06T11:04:07;101691.41;;;35.25;26.54
65151;BME280;51918;51.856;0.150;2022-07-06T11:09:10;101693.81;;;35.49;24.87
65151;BME280;51918;51.856;0.150;2022-07-06T11:14:12;101692.16;;;35.98;24.06
65151;BME280;51918;51.856;0.150;2022-07-06T11:19:14;101686.81;;;36.61;24.09
65151;BME280;51918;51.856;0.150;2022-07-06T11:24:17;101687.59;;;37.88;23.60
65151;BME280;51918;51.856;0.150;2022-07-06T11:29:20;101690.91;;;37.59;21.55
65151;BME280;51918;51.856;0.150;2022-07-06T11:34:22;101689.56;;;36.87;21.83
65151;BME280;51918;51.856;0.150;2022-07-06T11:39:26;101695.84;;;35.80;23.14
65151;BME280;51918;51.856;0.150;2022-07-06T11:44:27;101690.50;;;34.33;24.45
65151;BME280;51918;51.856;0.150;2022-07-06T11:49:28;101684.69;;;33.60;25.71
65151;BME280;51918;51.856;0.150;2022-07-06T11:54:31;101692.88;;;33.25;25.94
65151;BME280;51918;51.856;0.150;2022-07-06T11:59:36;101690.03;;;32.98;26.39
65151;BME280;51918;51.856;0.150;2022-07-06T12:04:38;101680.44;;;32.43;26.67
65151;BME280;51918;51.856;0.150;2022-07-06T12:09:42;101678.34;;;31.72;27.40
65151;BME280;51918;51.856;0.150;2022-07-06T12:14:43;101666.69;;;31.08;28.49
65151;BME280;51918;51.856;0.150;2022-07-06T12:19:44;101667.06;;;30.50;29.11
65151;BME280;51918;51.856;0.150;2022-07-06T12:24:47;101677.19;;;30.12;29.71
65151;BME280;51918;51.856;0.150;2022-07-06T12:29:48;101669.47;;;30.00;30.34
65151;BME280;51918;51.856;0.150;2022-07-06T12:35:02;101673.41;;;29.77;29.97
65151;BME280;51918;51.856;0.150;2022-07-06T12:40:12;101671.59;;;30.13;30.60
65151;BME280;51918;51.856;0.150;2022-07-06T12:45:13;101661.50;;;30.41;29.61
65151;BME280;51918;51.856;0.150;2022-07-06T12:50:13;101671.31;;;30.76;29.26
65151;BME280;51918;51.856;0.150;2022-07-06T12:55:15;101679.78;;;30.73;29.09
65151;BME280;51918;51.856;0.150;2022-07-06T13:00:16;101680.63;;;30.53;29.49
65151;BME280;51918;51.856;0.150;2022-07-06T13:05:18;101674.72;;;30.82;29.82
65151;BME280;51918;51.856;0.150;2022-07-06T13:10:20;101661.97;;;30.84;29.46
65151;BME280;51918;51.856;0.150;2022-07-06T13:15:20;101650.75;;;31.02;29.26
65151;BME280;51918;51.856;0.150;2022-07-06T13:20:21;101640.88;;;31.58;28.51
65151;BME280;51918;51.856;0.150;2022-07-06T13:25:23;101631.00;;;31.69;28.28
65151;BME280;51918;51.856;0.150;2022-07-06T13:30:23;101630.19;;;31.68;27.35
65151;BME280;51918;51.856;0.150;2022-07-06T13:35:24;101625.19;;;31.96;28.33
65151;BME280;51918;51.856;0.150;2022-07-06T13:40:26;101626.88;;;32.45;27.50
65151;BME280;51918;51.856;0.150;2022-07-06T13:45:27;101621.91;;;32.86;26.54
65151;BME280;51918;51.856;0.150;2022-07-06T13:50:28;101611.38;;;32.76;26.45
65151;BME280;51918;51.856;0.150;2022-07-06T13:55:30;101618.28;;;32.77;26.37
65151;BME280;51918;51.856;0.150;2022-07-06T14:00:31;101610.91;;;32.45;26.71
65151;BME280;51918;51.856;0.150;2022-07-06T14:05:32;101618.03;;;32.50;26.81
65151;BME280;51918;51.856;0.150;2022-07-06T14:10:34;101611.34;;;32.28;27.04
65151;BME280;51918;51.856;0.150;2022-07-06T14:15:35;101602.44;;;32.09;27.17
65151;BME280;51918;51.856;0.150;2022-07-06T14:20:36;101610.00;;;31.96;27.21
65151;BME280;51918;51.856;0.150;2022-07-06T14:25:38;101609.09;;;32.11;27.72
65151;BME280;51918;51.856;0.150;2022-07-06T14:30:40;101594.19;;;32.10;27.16
65151;BME280;51918;51.856;0.150;2022-07-06T14:35:42;101596.75;;;31.91;26.97
65151;BME280;51918;51.856;0.150;2022-07-06T14:40:45;101600.13;;;32.02;27.28
65151;BME280;51918;51.856;0.150;2022-07-06T14:45:45;101600.03;;;31.83;27.70
65151;BME280;51918;51.856;0.150;2022-07-06T14:50:46;101599.28;;;32.06;27.08
65151;BME280;51918;51.856;0.150;2022-07-06T14:55:48;101603.41;;;31.54;27.59
65151;BME280;51918;51.856;0.150;2022-07-06T15:00:49;101596.03;;;31.46;28.14
65151;BME280;51918;51.856;0.150;2022-07-06T15:05:49;101591.06;;;31.34;27.53
65151;BME280;51918;51.856;0.150;2022-07-06T15:10:52;101587.78;;;31.42;27.28
65151;BME280;51918;51.856;0.150;2022-07-06T15:15:52;101581.97;;;30.85;27.43
65151;BME280;51918;51.856;0.150;2022-07-06T15:20:53;101573.00;;;30.71;27.78
65151;BME280;51918;51.856;0.150;2022-07-06T15:25:55;101571.47;;;30.55;28.25
65151;BME280;51918;51.856;0.150;2022-07-06T15:30:56;101559.06;;;30.24;28.60
65151;BME280;51918;51.856;0.150;2022-07-06T15:35:57;101567.03;;;29.94;28.82
65151;BME280;51918;51.856;0.150;2022-07-06T15:41:02;101555.63;;;29.78;29.05
65151;BME280;51918;51.856;0.150;2022-07-06T15:46:03;101553.25;;;29.71;29.33
65151;BME280;51918;51.856;0.150;2022-07-06T15:51:04;101534.09;;;29.38;29.75
65151;BME280;51918;51.856;0.150;2022-07-06T15:56:06;101542.78;;;29.08;30.37
65151;BME280;51918;51.856;0.150;2022-07-06T16:01:07;101529.19;;;28.84;30.55
65151;BME280;51918;51.856;0.150;2022-07-06T16:06:08;101526.47;;;28.64;30.97
65151;BME280;51918;51.856;0.150;2022-07-06T16:11:10;101520.03;;;28.44;31.41
65151;BME280;51918;51.856;0.150;2022-07-06T16:16:11;101508.09;;;28.41;31.48
65151;BME280;51918;51.856;0.150;2022-07-06T16:21:12;101497.50;;;28.41;31.63
65151;BME280;51918;51.856;0.150;2022-07-06T16:26:14;101504.53;;;28.20;31.77
65151;BME280;51918;51.856;0.150;2022-07-06T16:31:15;101508.22;;;28.19;31.92
65151;BME280;51918;51.856;0.150;2022-07-06T16:36:16;101497.13;;;28.23;31.96
65151;BME280;51918;51.856;0.150;2022-07-06T16:41:18;101492.94;;;28.27;31.99
65151;BME280;51918;51.856;0.150;2022-07-06T16:46:19;101490.84;;;28.29;31.82
65151;BME280;51918;51.856;0.150;2022-07-06T16:51:19;101499.09;;;28.00;32.20
65151;BME280;51918;51.856;0.150;2022-07-06T16:56:22;101497.75;;;27.92;32.38
65151;BME280;51918;51.856;0.150;2022-07-06T17:01:23;101495.81;;;27.83;32.17
65151;BME280;51918;51.856;0.150;2022-07-06T17:06:24;101502.34;;;27.70;32.70
65151;BME280;51918;51.856;0.150;2022-07-06T17:11:26;101492.63;;;27.48;32.90
65151;BME280;51918;51.856;0.150;2022-07-06T17:16:26;101492.03;;;27.41;33.09
65151;BME280;51918;51.856;0.150;2022-07-06T17:21:27;101492.63;;;27.21;33.59
65151;BME280;51918;51.856;0.150;2022-07-06T17:26:29;101490.72;;;27.16;33.73
65151;BME280;51918;51.856;0.150;2022-07-06T17:31:30;101488.81;;;26.85;33.69
65151;BME280;51918;51.856;0.150;2022-07-06T17:36:30;101472.22;;;26.67;33.80
65151;BME280;51918;51.856;0.150;2022-07-06T17:41:32;101460.28;;;26.59;33.98
65151;BME280;51918;51.856;0.150;2022-07-06T17:46:33;101461.88;;;26.44;34.77
65151;BME280;51918;51.856;0.150;2022-07-06T17:51:33;101449.91;;;26.36;34.43
65151;BME280;51918;51.856;0.150;2022-07-06T17:56:36;101441.88;;;26.26;35.04
65151;BME280;51918;51.856;0.150;2022-07-06T18:01:37;101453.22;;;26.26;35.11
65151;BME280;51918;51.856;0.150;2022-07-06T18:06:37;101442.88;;;26.03;35.22
65151;BME280;51918;51.856;0.150;2022-07-06T18:11:39;101449.59;;;25.93;35.72
65151;BME280;51918;51.856;0.150;2022-07-06T18:16:40;101454.31;;;25.74;35.61
65151;BME280;51918;51.856;0.150;2022-07-06T18:21:41;101457.66;;;25.70;35.55
65151;BME280;51918;51.856;0.150;2022-07-06T18:26:43;101460.06;;;25.71;35.55
65151;BME280;51918;51.856;0.150;2022-07-06T18:31:44;101465.72;;;25.46;35.81
65151;BME280;51918;51.856;0.150;2022-07-06T18:36:45;101468.84;;;25.60;35.86
65151;BME280;51918;51.856;0.150;2022-07-06T18:41:47;101470.91;;;25.41;35.92
65151;BME280;51918;51.856;0.150;2022-07-06T18:46:47;101465.94;;;25.45;35.76
65151;BME280;51918;51.856;0.150;2022-07-06T18:51:48;101461.94;;;25.25;35.80
65151;BME280;51918;51.856;0.150;2022-07-06T18:56:50;101461.75;;;25.15;35.69
65151;BME280;51918;51.856;0.150;2022-07-06T19:01:50;101460.91;;;24.98;36.26
65151;BME280;51918;51.856;0.150;2022-07-06T19:06:51;101460.09;;;24.97;36.28
65151;BME280;51918;51.856;0.150;2022-07-06T19:11:54;101448.97;;;24.78;36.24
65151;BME280;51918;51.856;0.150;2022-07-06T19:16:54;101450.47;;;24.74;36.97
65151;BME280;51918;51.856;0.150;2022-07-06T19:21:55;101457.91;;;24.65;36.99
65151;BME280;51918;51.856;0.150;2022-07-06T19:26:57;101450.38;;;24.45;37.65
65151;BME280;51918;51.856;0.150;2022-07-06T19:31:58;101441.13;;;24.31;37.69
65151;BME280;51918;51.856;0.150;2022-07-06T19:36:58;101441.72;;;24.21;37.70
65151;BME280;51918;51.856;0.150;2022-07-06T19:42:01;101464.25;;;24.05;38.29
65151;BME280;51918;51.856;0.150;2022-07-06T19:47:02;101469.63;;;23.99;38.47
65151;BME280;51918;51.856;0.150;2022-07-06T19:52:03;101460.28;;;23.72;39.09
65151;BME280;51918;51.856;0.150;2022-07-06T19:57:05;101461.53;;;23.58;39.25
65151;BME280;51918;51.856;0.150;2022-07-06T20:02:06;101444.56;;;23.42;39.42
65151;BME280;51918;51.856;0.150;2022-07-06T20:07:07;101451.28;;;23.26;39.71
65151;BME280;51918;51.856;0.150;2022-07-06T20:12:10;101447.53;;;23.04;40.06
65151;BME280;51918;51.856;0.150;2022-07-06T20:17:10;101461.75;;;22.78;40.92
65151;BME280;51918;51.856;0.150;2022-07-06T20:22:11;101468.25;;;22.57;41.23
65151;BME280;51918;51.856;0.150;2022-07-06T20:27:13;101475.50;;;22.36;41.64
65151;BME280;51918;51.856;0.150;2022-07-06T20:32:13;101481.72;;;22.17;42.29
65151;BME280;51918;51.856;0.150;2022-07-06T20:37:14;101476.88;;;21.95;42.18
65151;BME280;51918;51.856;0.150;2022-07-06T20:42:16;101469.31;;;21.80;42.55
65151;BME280;51918;51.856;0.150;2022-07-06T20:47:17;101480.53;;;21.56;43.78
65151;BME280;51918;51.856;0.150;2022-07-06T20:52:17;101492.16;;;21.28;44.60
65151;BME280;51918;51.856;0.150;2022-07-06T20:57:19;101504.34;;;21.02;45.58
65151;BME280;51918;51.856;0.150;2022-07-06T21:02:22;101505.22;;;20.76;46.47
65151;BME280;51918;51.856;0.150;2022-07-06T21:07:23;101512.47;;;20.74;46.41
65151;BME280;51918;51.856;0.150;2022-07-06T21:12:25;101515.69;;;20.76;46.47
65151;BME280;51918;51.856;0.150;2022-07-06T21:17:26;101511.25;;;20.70;46.27
65151;BME280;51918;51.856;0.150;2022-07-06T21:22:27;101506.06;;;20.37;47.36
65151;BME280;51918;51.856;0.150;2022-07-06T21:27:29;101516.53;;;20.30;47.42
65151;BME280;51918;51.856;0.150;2022-07-06T21:32:29;101508.25;;;20.20;47.08
65151;BME280;51918;51.856;0.150;2022-07-06T21:37:30;101506.44;;;20.00;47.73
65151;BME280;51918;51.856;0.150;2022-07-06T21:42:32;101507.44;;;19.86;48.05
65151;BME280;51918;51.856;0.150;2022-07-06T21:47:32;101502.75;;;19.61;48.36
65151;BME280;51918;51.856;0.150;2022-07-06T21:52:33;101513.00;;;19.50;48.71
65151;BME280;51918;51.856;0.150;2022-07-06T21:57:35;101500.47;;;19.38;48.85
65151;BME280;51918;51.856;0.150;2022-07-06T22:02:37;101501.16;;;19.12;49.72
65151;BME280;51918;51.856;0.150;2022-07-06T22:07:38;101489.56;;;19.15;49.64
65151;BME280;51918;51.856;0.150;2022-07-06T22:12:40;101481.28;;;19.04;49.41
65151;BME280;51918;51.856;0.150;2022-07-06T22:17:41;101478.47;;;18.99;49.97
65151;BME280;51918;51.856;0.150;2022-07-06T22:22:42;101483.22;;;18.89;49.72
65151;BME280;51918;51.856;0.150;2022-07-06T22:27:44;101490.41;;;18.80;50.19
65151;BME280;51918;51.856;0.150;2022-07-06T22:32:45;101474.28;;;18.70;50.79
65151;BME280;51918;51.856;0.150;2022-07-06T22:37:45;101479.91;;;18.45;50.60
65151;BME280;51918;51.856;0.150;2022-07-06T22:42:48;101480.53;;;18.48;51.23
65151;BME280;51918;51.856;0.150;2022-07-06T22:47:48;101473.00;;;18.31;51.25
65151;BME280;51918;51.856;0.150;2022-07-06T22:52:49;101472.91;;;18.18;51.83
65151;BME280;51918;51.856;0.150;2022-07-06T22:57:52;101474.59;;;18.04;52.28
65151;BME280;51918;51.856;0.150;2022-07-06T23:02:52;101477.69;;;17.93;52.87
65151;BME280;51918;51.856;0.150;2022-07-06T23:07:53;101470.78;;;17.63;53.61
65151;BME280;51918;51.856;0.150;2022-07-06T23:12:55;101480.22;;;17.64;52.73
65151;BME280;51918;51.856;0.150;2022-07-06T23:17:56;101468.88;;;17.72;53.27
65151;BME280;51918;51.856;0.150;2022-07-06T23:22:57;101462.38;;;17.47;54.18
65151;BME280;51918;51.856;0.150;2022-07-06T23:27:59;101475.00;;;17.64;53.77
65151;BME280;51918;51.856;0.150;2022-07-06T23:33:00;101464.53;;;17.58;53.92
65151;BME280;51918;51.856;0.150;2022-07-06T23:38:00;101471.06;;;17.32;53.19
65151;BME280;51918;51.856;0.150;2022-07-06T23:43:02;101462.59;;;17.45;53.82
65151;BME280;51918;51.856;0.150;2022-07-06T23:48:04;101464.94;;;17.40;54.59
65151;BME280;51918;51.856;0.150;2022-07-06T23:53:05;101472.88;;;17.32;55.19
65151;BME280;51918;51.856;0.150;2022-07-06T23:58:07;101476.91;;;17.19;54.52
